^^
TXWeather Station Historical Data
Daily Summary for March 10, 2022 Units:  English    Metric   Both
Daily Weekly Monthly Yearly Custom
  High: Low: Average:
Temperature: 78.0 °F 40.0 °F 57.6 °F
Dew Point: 52.0 °F 36.0 °F 45.4 °F
Humidity: 89% 38% 67%
Wind Speed: 21mph 0mph 5.2mph
Wind Gust: 21mph - -
Wind- - East
Pressure: 30.1 in 29.9 in -
Precipitation: 0.000 in    
Historical Graphs
 
 
Tabular Data for March 10, 2022
Time Temperature Dew Point Pressure Wind Wind Speed Wind Gust Humidity Rainfall Rate (Hourly) solar
00:04 46.0 °F 40.0 °F 30.0 in ENE 3 mph 3 mph 78% 0.000 in 0.00 W/m2
00:09 46.0 °F 40.0 °F 30.0 in ENE 2 mph 2 mph 78% 0.000 in 0.00 W/m2
00:14 46.0 °F 40.0 °F 30.0 in East 3 mph 3 mph 78% 0.000 in 0.00 W/m2
00:19 46.0 °F 40.0 °F 30.0 in ENE 7 mph 7 mph 79% 0.000 in 0.00 W/m2
00:24 46.0 °F 40.0 °F 30.0 in ENE 3 mph 3 mph 79% 0.000 in 0.00 W/m2
00:29 46.0 °F 40.0 °F 30.0 in ENE 4 mph 4 mph 79% 0.000 in 0.00 W/m2
00:34 46.0 °F 40.0 °F 30.0 in ENE 3 mph 4 mph 80% 0.000 in 0.00 W/m2
00:39 46.0 °F 40.0 °F 30.0 in East 3 mph 3 mph 80% 0.000 in 0.00 W/m2
00:44 46.0 °F 40.0 °F 30.0 in ENE 2 mph 3 mph 80% 0.000 in 0.00 W/m2
00:49 46.0 °F 40.0 °F 30.0 in ENE 2 mph 2 mph 80% 0.000 in 0.00 W/m2
00:54 45.0 °F 40.0 °F 30.0 in ENE 3 mph 3 mph 80% 0.000 in 0.00 W/m2
00:59 45.0 °F 40.0 °F 30.0 in ENE 2 mph 3 mph 80% 0.000 in 0.00 W/m2
01:04 45.0 °F 39.0 °F 30.0 in ENE 3 mph 3 mph 80% 0.000 in 0.00 W/m2
01:09 45.0 °F 39.0 °F 30.0 in ENE 2 mph 2 mph 80% 0.000 in 0.00 W/m2
01:14 45.0 °F 39.0 °F 30.0 in NE 4 mph 4 mph 80% 0.000 in 0.00 W/m2
01:19 45.0 °F 39.0 °F 30.0 in NE 3 mph 4 mph 81% 0.000 in 0.00 W/m2
01:24 45.0 °F 39.0 °F 30.0 in ENE 2 mph 3 mph 81% 0.000 in 0.00 W/m2
01:29 45.0 °F 39.0 °F 30.0 in ENE 3 mph 3 mph 81% 0.000 in 0.00 W/m2
01:34 45.0 °F 39.0 °F 30.0 in NE 3 mph 3 mph 81% 0.000 in 0.00 W/m2
01:39 44.0 °F 39.0 °F 30.0 in NE 2 mph 3 mph 81% 0.000 in 0.00 W/m2
01:44 44.0 °F 39.0 °F 30.0 in NE 1 mph 3 mph 81% 0.000 in 0.00 W/m2
01:49 44.0 °F 39.0 °F 30.0 in NE 2 mph 3 mph 81% 0.000 in 0.00 W/m2
01:54 44.0 °F 39.0 °F 30.0 in ENE 2 mph 3 mph 82% 0.000 in 0.00 W/m2
01:59 44.0 °F 39.0 °F 30.0 in ENE 2 mph 2 mph 82% 0.000 in 0.00 W/m2
02:04 44.0 °F 39.0 °F 30.0 in ENE 2 mph 2 mph 82% 0.000 in 0.00 W/m2
02:09 44.0 °F 39.0 °F 30.0 in ENE 2 mph 2 mph 82% 0.000 in 0.00 W/m2
02:14 44.0 °F 39.0 °F 30.0 in ENE 3 mph 3 mph 82% 0.000 in 0.00 W/m2
02:19 44.0 °F 39.0 °F 30.0 in NE 3 mph 3 mph 82% 0.000 in 0.00 W/m2
02:24 43.0 °F 38.0 °F 30.0 in NE 2 mph 3 mph 82% 0.000 in 0.00 W/m2
02:29 43.0 °F 39.0 °F 30.0 in NE 3 mph 3 mph 83% 0.000 in 0.00 W/m2
02:34 43.0 °F 39.0 °F 30.0 in NE 3 mph 3 mph 83% 0.000 in 0.00 W/m2
02:39 43.0 °F 39.0 °F 30.0 in ENE 2 mph 3 mph 83% 0.000 in 0.00 W/m2
02:44 43.0 °F 39.0 °F 30.0 in ENE 3 mph 3 mph 83% 0.000 in 0.00 W/m2
02:49 43.0 °F 38.0 °F 30.0 in East 3 mph 3 mph 83% 0.000 in 0.00 W/m2
02:54 43.0 °F 39.0 °F 30.0 in ENE 2 mph 3 mph 84% 0.000 in 0.00 W/m2
02:59 43.0 °F 39.0 °F 30.0 in ENE 2 mph 2 mph 84% 0.000 in 0.00 W/m2
03:04 43.0 °F 39.0 °F 30.0 in ENE 3 mph 3 mph 84% 0.000 in 0.00 W/m2
03:09 43.0 °F 39.0 °F 30.0 in ENE 3 mph 3 mph 84% 0.000 in 0.00 W/m2
03:14 43.0 °F 38.0 °F 30.0 in NE 3 mph 3 mph 84% 0.000 in 0.00 W/m2
03:19 43.0 °F 38.0 °F 30.0 in NE 4 mph 4 mph 84% 0.000 in 0.00 W/m2
03:24 43.0 °F 38.0 °F 30.0 in ENE 2 mph 3 mph 84% 0.000 in 0.00 W/m2
03:29 43.0 °F 38.0 °F 30.0 in East 2 mph 2 mph 84% 0.000 in 0.00 W/m2
03:34 43.0 °F 39.0 °F 30.0 in East 3 mph 3 mph 85% 0.000 in 0.00 W/m2
03:39 42.0 °F 38.0 °F 30.0 in East 2 mph 3 mph 85% 0.000 in 0.00 W/m2
03:44 42.0 °F 38.0 °F 30.0 in ENE 3 mph 4 mph 85% 0.000 in 0.00 W/m2
03:49 42.0 °F 38.0 °F 30.0 in East 6 mph 6 mph 85% 0.000 in 0.00 W/m2
03:54 42.0 °F 38.0 °F 30.0 in ENE 3 mph 6 mph 85% 0.000 in 0.00 W/m2
03:59 42.0 °F 38.0 °F 30.0 in East 3 mph 3 mph 85% 0.000 in 0.00 W/m2
04:04 42.0 °F 38.0 °F 30.0 in ENE 4 mph 4 mph 85% 0.000 in 0.00 W/m2
04:09 42.0 °F 38.0 °F 30.0 in NE 3 mph 4 mph 85% 0.000 in 0.00 W/m2
04:14 42.0 °F 38.0 °F 30.0 in East 3 mph 3 mph 85% 0.000 in 0.00 W/m2
04:19 42.0 °F 38.0 °F 30.0 in ENE 2 mph 3 mph 86% 0.000 in 0.00 W/m2
04:24 42.0 °F 38.0 °F 30.0 in NE 3 mph 3 mph 85% 0.000 in 0.00 W/m2
04:29 42.0 °F 38.0 °F 30.0 in NE 2 mph 2 mph 85% 0.000 in 0.00 W/m2
04:34 42.0 °F 38.0 °F 30.0 in ENE 2 mph 3 mph 86% 0.000 in 0.00 W/m2
04:39 42.0 °F 38.0 °F 30.0 in ENE 2 mph 3 mph 86% 0.000 in 0.00 W/m2
04:44 42.0 °F 38.0 °F 30.0 in ENE 2 mph 3 mph 86% 0.000 in 0.00 W/m2
04:49 42.0 °F 38.0 °F 30.0 in NE 3 mph 3 mph 86% 0.000 in 0.00 W/m2
04:54 42.0 °F 38.0 °F 30.0 in NE 1 mph 2 mph 86% 0.000 in 0.00 W/m2
04:59 42.0 °F 38.0 °F 30.0 in NE 1 mph 1 mph 86% 0.000 in 0.00 W/m2
05:04 42.0 °F 38.0 °F 30.0 in NE 2 mph 2 mph 86% 0.000 in 0.00 W/m2
05:09 42.0 °F 38.0 °F 30.0 in ENE 2 mph 2 mph 86% 0.000 in 0.00 W/m2
05:14 41.0 °F 38.0 °F 30.0 in ENE 2 mph 3 mph 86% 0.000 in 0.00 W/m2
05:19 41.0 °F 38.0 °F 30.0 in East 2 mph 2 mph 86% 0.000 in 0.00 W/m2
05:24 41.0 °F 37.0 °F 30.0 in East 1 mph 1 mph 86% 0.000 in 0.00 W/m2
05:29 41.0 °F 37.0 °F 30.0 in East 1 mph 1 mph 86% 0.000 in 0.00 W/m2
05:34 41.0 °F 37.0 °F 30.0 in East 2 mph 2 mph 86% 0.000 in 0.00 W/m2
05:39 41.0 °F 37.0 °F 30.0 in East 1 mph 2 mph 86% 0.000 in 0.00 W/m2
05:44 41.0 °F 37.0 °F 30.0 in East 2 mph 2 mph 86% 0.000 in 0.00 W/m2
05:49 41.0 °F 37.0 °F 30.0 in East 2 mph 2 mph 86% 0.000 in 0.00 W/m2
05:54 41.0 °F 37.0 °F 30.0 in East 1 mph 2 mph 86% 0.000 in 0.00 W/m2
05:59 41.0 °F 37.0 °F 30.0 in East 2 mph 2 mph 87% 0.000 in 0.00 W/m2
06:04 41.0 °F 37.0 °F 30.0 in East 2 mph 2 mph 87% 0.000 in 0.00 W/m2
06:09 41.0 °F 37.0 °F 30.0 in East 1 mph 2 mph 87% 0.000 in 0.00 W/m2
06:14 41.0 °F 37.0 °F 30.0 in Calm   1 mph 87% 0.000 in 0.00 W/m2
06:19 41.0 °F 37.0 °F 30.1 in Calm     86% 0.000 in 0.00 W/m2
06:24 41.0 °F 37.0 °F 30.1 in East 1 mph 2 mph 86% 0.000 in 0.00 W/m2
06:29 41.0 °F 37.0 °F 30.1 in East 1 mph 2 mph 87% 0.000 in 0.00 W/m2
06:34 40.0 °F 37.0 °F 30.1 in East 2 mph 2 mph 87% 0.000 in 0.00 W/m2
06:39 40.0 °F 37.0 °F 30.1 in East 2 mph 3 mph 87% 0.000 in 0.00 W/m2
06:44 40.0 °F 37.0 °F 30.1 in ENE 2 mph 2 mph 87% 0.000 in 7.00 W/m2
06:49 40.0 °F 37.0 °F 30.1 in ENE 2 mph 2 mph 87% 0.000 in 9.00 W/m2
06:54 40.0 °F 36.0 °F 30.1 in ENE 2 mph 2 mph 87% 0.000 in 11.00 W/m2
06:59 40.0 °F 36.0 °F 30.1 in ENE 2 mph 2 mph 87% 0.000 in 14.00 W/m2
07:04 40.0 °F 36.0 °F 30.1 in ENE 2 mph 2 mph 87% 0.000 in 16.00 W/m2
07:09 40.0 °F 37.0 °F 30.1 in ENE 1 mph 2 mph 87% 0.000 in 19.00 W/m2
07:14 40.0 °F 37.0 °F 30.1 in ENE 2 mph 2 mph 87% 0.000 in 32.00 W/m2
07:19 40.0 °F 37.0 °F 30.1 in ENE 2 mph 2 mph 87% 0.000 in 77.00 W/m2
07:24 41.0 °F 37.0 °F 30.1 in ENE 2 mph 2 mph 88% 0.000 in 91.00 W/m2
07:29 41.0 °F 38.0 °F 30.1 in ENE 2 mph 2 mph 88% 0.000 in 111.00 W/m2
07:34 42.0 °F 38.0 °F 30.1 in NE 3 mph 3 mph 88% 0.000 in 127.00 W/m2
07:39 42.0 °F 39.0 °F 30.1 in NNE 3 mph 3 mph 88% 0.000 in 151.00 W/m2
07:44 43.0 °F 40.0 °F 30.1 in NE 2 mph 2 mph 89% 0.000 in 169.00 W/m2
07:49 44.0 °F 41.0 °F 30.1 in NE 2 mph 2 mph 89% 0.000 in 190.00 W/m2
07:54 44.0 °F 41.0 °F 30.1 in East 3 mph 3 mph 89% 0.000 in 202.00 W/m2
07:59 45.0 °F 42.0 °F 30.1 in ESE 8 mph 9 mph 89% 0.000 in 229.00 W/m2
08:04 46.0 °F 42.0 °F 30.1 in ESE 4 mph 9 mph 89% 0.000 in 241.00 W/m2
08:09 46.0 °F 43.0 °F 30.1 in ESE 4 mph 4 mph 89% 0.000 in 265.00 W/m2
08:14 47.0 °F 43.0 °F 30.1 in ESE 3 mph 4 mph 89% 0.000 in 281.00 W/m2
08:19 47.0 °F 44.0 °F 30.1 in ENE 4 mph 4 mph 88% 0.000 in 316.00 W/m2
08:24 48.0 °F 44.0 °F 30.1 in East 3 mph 4 mph 88% 0.000 in 316.00 W/m2
08:29 48.0 °F 44.0 °F 30.1 in NNE 5 mph 5 mph 88% 0.000 in 341.00 W/m2
08:34 48.0 °F 45.0 °F 30.1 in ENE 4 mph 4 mph 87% 0.000 in 371.00 W/m2
08:39 49.0 °F 45.0 °F 30.1 in NE 5 mph 6 mph 86% 0.000 in 394.00 W/m2
08:44 49.0 °F 45.0 °F 30.1 in NE 5 mph 5 mph 85% 0.000 in 410.00 W/m2
08:49 50.0 °F 45.0 °F 30.1 in NNE 6 mph 6 mph 84% 0.000 in 373.00 W/m2
08:54 50.0 °F 45.0 °F 30.1 in NE 4 mph 4 mph 84% 0.000 in 366.00 W/m2
08:59 51.0 °F 45.0 °F 30.1 in NNE 7 mph 7 mph 83% 0.000 in 462.00 W/m2
09:04 51.0 °F 46.0 °F 30.1 in NE 4 mph 6 mph 82% 0.000 in 482.00 W/m2
09:09 52.0 °F 46.0 °F 30.1 in NE 5 mph 6 mph 81% 0.000 in 494.00 W/m2
09:14 52.0 °F 46.0 °F 30.1 in NNE 6 mph 8 mph 80% 0.000 in 519.00 W/m2
09:19 52.0 °F 46.0 °F 30.1 in NNE 7 mph 8 mph 78% 0.000 in 527.00 W/m2
09:24 53.0 °F 46.0 °F 30.1 in NNE 6 mph 9 mph 77% 0.000 in 548.00 W/m2
09:29 53.0 °F 46.0 °F 30.1 in NNE 8 mph 8 mph 76% 0.000 in 555.00 W/m2
09:34 53.0 °F 46.0 °F 30.1 in NE 7 mph 8 mph 75% 0.000 in 584.00 W/m2
09:39 54.0 °F 46.0 °F 30.1 in NNE 5 mph 7 mph 74% 0.000 in 594.00 W/m2
09:44 55.0 °F 46.0 °F 30.1 in NNE 5 mph 5 mph 73% 0.000 in 612.00 W/m2
09:49 55.0 °F 46.0 °F 30.1 in NNE 4 mph 4 mph 73% 0.000 in 626.00 W/m2
09:54 56.0 °F 47.0 °F 30.1 in NNE 5 mph 5 mph 72% 0.000 in 640.00 W/m2
09:59 56.0 °F 47.0 °F 30.1 in NNE 6 mph 7 mph 71% 0.000 in 652.00 W/m2
10:04 57.0 °F 47.0 °F 30.1 in North 5 mph 5 mph 69% 0.000 in 668.00 W/m2
10:09 57.0 °F 47.0 °F 30.1 in ENE 4 mph 4 mph 69% 0.000 in 684.00 W/m2
10:14 58.0 °F 47.0 °F 30.1 in NNE 5 mph 6 mph 67% 0.000 in 694.00 W/m2
10:19 58.0 °F 47.0 °F 30.1 in NNE 5 mph 6 mph 67% 0.000 in 710.00 W/m2
10:24 59.0 °F 47.0 °F 30.1 in NNE 5 mph 5 mph 65% 0.000 in 719.00 W/m2
10:29 59.0 °F 47.0 °F 30.1 in NNE 5 mph 7 mph 65% 0.000 in 729.00 W/m2
10:34 60.0 °F 47.0 °F 30.1 in NE 6 mph 6 mph 64% 0.000 in 740.00 W/m2
10:39 60.0 °F 47.0 °F 30.1 in NE 4 mph 6 mph 63% 0.000 in 747.00 W/m2
10:44 60.0 °F 47.0 °F 30.1 in ENE 4 mph 5 mph 62% 0.000 in 763.00 W/m2
10:49 61.0 °F 47.0 °F 30.1 in ENE 6 mph 7 mph 61% 0.000 in 772.00 W/m2
10:54 61.0 °F 47.0 °F 30.1 in ENE 5 mph 9 mph 60% 0.000 in 780.00 W/m2
10:59 62.0 °F 48.0 °F 30.1 in East 6 mph 6 mph 59% 0.000 in 791.00 W/m2
11:04 62.0 °F 48.0 °F 30.1 in East 7 mph 7 mph 59% 0.000 in 802.00 W/m2
11:09 62.0 °F 48.0 °F 30.1 in ENE 7 mph 8 mph 58% 0.000 in 807.00 W/m2
11:14 63.0 °F 48.0 °F 30.1 in East 7 mph 7 mph 59% 0.000 in 814.00 W/m2
11:19 63.0 °F 49.0 °F 30.1 in NNE 8 mph 8 mph 59% 0.000 in 826.00 W/m2
11:24 64.0 °F 49.0 °F 30.1 in NNE 10 mph 10 mph 58% 0.000 in 833.00 W/m2
11:29 64.0 °F 48.0 °F 30.1 in North 6 mph 8 mph 56% 0.000 in 837.00 W/m2
11:34 64.0 °F 48.0 °F 30.1 in NE 8 mph 10 mph 56% 0.000 in 844.00 W/m2
11:39 65.0 °F 48.0 °F 30.1 in NE 5 mph 8 mph 55% 0.000 in 851.00 W/m2
11:44 65.0 °F 49.0 °F 30.0 in NNE 9 mph 10 mph 55% 0.000 in 858.00 W/m2
11:49 65.0 °F 49.0 °F 30.0 in NE 6 mph 10 mph 55% 0.000 in 863.00 W/m2
11:54 66.0 °F 48.0 °F 30.0 in ENE 9 mph 9 mph 53% 0.000 in 865.00 W/m2
11:59 66.0 °F 49.0 °F 30.0 in ESE 7 mph 9 mph 55% 0.000 in 870.00 W/m2
12:04 66.0 °F 50.0 °F 30.0 in East 6 mph 7 mph 55% 0.000 in 874.00 W/m2
12:09 67.0 °F 50.0 °F 30.0 in NE 6 mph 8 mph 54% 0.000 in 875.00 W/m2
12:14 68.0 °F 51.0 °F 30.0 in ENE 7 mph 7 mph 55% 0.000 in 877.00 W/m2
12:19 68.0 °F 51.0 °F 30.0 in NE 6 mph 7 mph 55% 0.000 in 879.00 W/m2
12:24 69.0 °F 51.0 °F 30.0 in SE 9 mph 9 mph 53% 0.000 in 882.00 W/m2
12:29 69.0 °F 51.0 °F 30.0 in SSE 7 mph 9 mph 53% 0.000 in 881.00 W/m2
12:34 69.0 °F 51.0 °F 30.0 in SSE 10 mph 10 mph 52% 0.000 in 882.00 W/m2
12:39 70.0 °F 50.0 °F 30.0 in SSE 9 mph 10 mph 49% 0.000 in 882.00 W/m2
12:44 70.0 °F 50.0 °F 30.0 in SSE 8 mph 10 mph 48% 0.000 in 881.00 W/m2
12:49 70.0 °F 49.0 °F 30.0 in ENE 7 mph 7 mph 47% 0.000 in 877.00 W/m2
12:54 70.0 °F 50.0 °F 30.0 in ESE 6 mph 6 mph 48% 0.000 in 877.00 W/m2
12:59 71.0 °F 50.0 °F 30.0 in ESE 7 mph 7 mph 48% 0.000 in 875.00 W/m2
13:04 71.0 °F 50.0 °F 30.0 in ESE 5 mph 7 mph 48% 0.000 in 874.00 W/m2
13:09 71.0 °F 50.0 °F 30.0 in ESE 10 mph 10 mph 47% 0.000 in 872.00 W/m2
13:14 72.0 °F 50.0 °F 30.0 in SE 8 mph 10 mph 47% 0.000 in 870.00 W/m2
13:19 72.0 °F 50.0 °F 30.0 in SSE 4 mph 8 mph 45% 0.000 in 865.00 W/m2
13:24 72.0 °F 50.0 °F 30.0 in East 4 mph 4 mph 45% 0.000 in 858.00 W/m2
13:29 73.0 °F 51.0 °F 30.0 in SSE 7 mph 8 mph 48% 0.000 in 851.00 W/m2
13:34 73.0 °F 52.0 °F 30.0 in SE 8 mph 8 mph 47% 0.000 in 844.00 W/m2
13:39 74.0 °F 51.0 °F 30.0 in SE 5 mph 8 mph 45% 0.000 in 840.00 W/m2
13:44 74.0 °F 51.0 °F 30.0 in North 6 mph 6 mph 45% 0.000 in 831.00 W/m2
13:49 74.0 °F 50.0 °F 30.0 in NNE 7 mph 7 mph 43% 0.000 in 826.00 W/m2
13:54 74.0 °F 50.0 °F 30.0 in ENE 8 mph 9 mph 43% 0.000 in 819.00 W/m2
13:59 74.0 °F 50.0 °F 30.0 in NE 4 mph 9 mph 44% 0.000 in 812.00 W/m2
14:04 74.0 °F 51.0 °F 30.0 in SE 7 mph 7 mph 44% 0.000 in 805.00 W/m2
14:09 74.0 °F 50.0 °F 30.0 in SE 8 mph 8 mph 43% 0.000 in 798.00 W/m2
14:14 74.0 °F 49.0 °F 30.0 in East 6 mph 7 mph 41% 0.000 in 786.00 W/m2
14:19 74.0 °F 50.0 °F 29.9 in NE 5 mph 7 mph 42% 0.000 in 779.00 W/m2
14:24 74.0 °F 49.0 °F 29.9 in East 6 mph 7 mph 41% 0.000 in 768.00 W/m2
14:29 74.0 °F 50.0 °F 29.9 in NE 8 mph 12 mph 42% 0.000 in 759.00 W/m2
14:34 74.0 °F 50.0 °F 29.9 in NE 8 mph 8 mph 42% 0.000 in 747.00 W/m2
14:39 74.0 °F 50.0 °F 29.9 in ENE 10 mph 10 mph 42% 0.000 in 737.00 W/m2
14:44 75.0 °F 51.0 °F 29.9 in NNE 7 mph 10 mph 44% 0.000 in 724.00 W/m2
14:49 75.0 °F 51.0 °F 29.9 in ENE 7 mph 7 mph 43% 0.000 in 714.00 W/m2
14:54 75.0 °F 51.0 °F 29.9 in ENE 7 mph 7 mph 43% 0.000 in 698.00 W/m2
14:59 75.0 °F 50.0 °F 29.9 in NE 6 mph 7 mph 41% 0.000 in 689.00 W/m2
15:04 75.0 °F 50.0 °F 29.9 in NNE 7 mph 7 mph 42% 0.000 in 675.00 W/m2
15:09 76.0 °F 51.0 °F 29.9 in NNE 9 mph 9 mph 42% 0.000 in 663.00 W/m2
15:14 76.0 °F 50.0 °F 29.9 in North 5 mph 8 mph 41% 0.000 in 647.00 W/m2
15:19 76.0 °F 51.0 °F 29.9 in ESE 4 mph 5 mph 42% 0.000 in 633.00 W/m2
15:24 77.0 °F 51.0 °F 29.9 in SE 9 mph 9 mph 42% 0.000 in 615.00 W/m2
15:29 77.0 °F 51.0 °F 29.9 in SE 8 mph 8 mph 41% 0.000 in 599.00 W/m2
15:34 77.0 °F 51.0 °F 29.9 in SE 7 mph 7 mph 41% 0.000 in 582.00 W/m2
15:39 77.0 °F 51.0 °F 29.9 in ESE 7 mph 7 mph 40% 0.000 in 566.00 W/m2
15:44 77.0 °F 50.0 °F 29.9 in ESE 7 mph 7 mph 39% 0.000 in 554.00 W/m2
15:49 77.0 °F 52.0 °F 29.9 in SE 6 mph 7 mph 41% 0.000 in 541.00 W/m2
15:54 78.0 °F 51.0 °F 29.9 in SE 8 mph 8 mph 40% 0.000 in 522.00 W/m2
15:59 78.0 °F 51.0 °F 29.9 in SSE 8 mph 9 mph 40% 0.000 in 504.00 W/m2
16:04 78.0 °F 51.0 °F 29.9 in SE 9 mph 10 mph 39% 0.000 in 490.00 W/m2
16:09 78.0 °F 51.0 °F 29.9 in SE 12 mph 12 mph 39% 0.000 in 475.00 W/m2
16:14 78.0 °F 51.0 °F 29.9 in SSE 9 mph 12 mph 39% 0.000 in 461.00 W/m2
16:19 77.0 °F 50.0 °F 29.9 in SSE 10 mph 10 mph 38% 0.000 in 436.00 W/m2
16:24 77.0 °F 50.0 °F 29.9 in ESE 7 mph 10 mph 38% 0.000 in 420.00 W/m2
16:29 77.0 °F 50.0 °F 29.9 in SSE 9 mph 9 mph 39% 0.000 in 399.00 W/m2
16:34 77.0 °F 49.0 °F 29.9 in SE 9 mph 9 mph 38% 0.000 in 381.00 W/m2
16:39 77.0 °F 50.0 °F 29.9 in SE 8 mph 9 mph 39% 0.000 in 362.00 W/m2
16:44 77.0 °F 49.0 °F 29.9 in SE 2 mph 3 mph 38% 0.000 in 345.00 W/m2
16:49 77.0 °F 50.0 °F 29.9 in SE 5 mph 6 mph 39% 0.000 in 323.00 W/m2
16:54 77.0 °F 50.0 °F 29.9 in SE 3 mph 6 mph 39% 0.000 in 306.00 W/m2
16:59 77.0 °F 50.0 °F 29.9 in SSE 7 mph 7 mph 39% 0.000 in 283.00 W/m2
17:04 77.0 °F 50.0 °F 29.9 in SSE 10 mph 10 mph 39% 0.000 in 267.00 W/m2
17:09 77.0 °F 50.0 °F 29.9 in SSE 9 mph 11 mph 40% 0.000 in 246.00 W/m2
17:14 77.0 °F 50.0 °F 29.9 in SSE 9 mph 9 mph 40% 0.000 in 227.00 W/m2
17:19 76.0 °F 50.0 °F 29.9 in SE 7 mph 9 mph 41% 0.000 in 207.00 W/m2
17:24 76.0 °F 50.0 °F 29.9 in SE 6 mph 6 mph 41% 0.000 in 172.00 W/m2
17:29 75.0 °F 50.0 °F 29.9 in SE 8 mph 10 mph 41% 0.000 in 160.00 W/m2
17:34 75.0 °F 50.0 °F 29.9 in SE 8 mph 9 mph 42% 0.000 in 158.00 W/m2
17:39 75.0 °F 50.0 °F 29.9 in SSE 8 mph 9 mph 42% 0.000 in 141.00 W/m2
17:44 74.0 °F 50.0 °F 29.9 in SSE 8 mph 9 mph 43% 0.000 in 102.00 W/m2
17:49 74.0 °F 51.0 °F 29.9 in SSE 11 mph 13 mph 45% 0.000 in 35.00 W/m2
17:54 73.0 °F 51.0 °F 29.9 in SSE 9 mph 9 mph 46% 0.000 in 33.00 W/m2
17:59 73.0 °F 51.0 °F 29.9 in SSE 21 mph 21 mph 46% 0.000 in 30.00 W/m2
18:04 72.0 °F 51.0 °F 29.9 in SSE 17 mph 21 mph 48% 0.000 in 25.00 W/m2
18:09 71.0 °F 50.0 °F 29.9 in SE 14 mph 16 mph 49% 0.000 in 19.00 W/m2
18:14 70.0 °F 50.0 °F 29.9 in SE 14 mph 15 mph 49% 0.000 in 14.00 W/m2
18:19 69.0 °F 50.0 °F 29.9 in SE 15 mph 15 mph 50% 0.000 in 11.00 W/m2
18:24 69.0 °F 50.0 °F 29.9 in SSE 12 mph 15 mph 51% 0.000 in 9.00 W/m2
18:29 68.0 °F 50.0 °F 29.9 in SSE 11 mph 14 mph 51% 0.000 in 5.00 W/m2
18:34 68.0 °F 50.0 °F 29.9 in SE 8 mph 14 mph 52% 0.000 in 0.00 W/m2
18:39 68.0 °F 50.0 °F 29.9 in SE 10 mph 10 mph 52% 0.000 in 0.00 W/m2
18:44 67.0 °F 50.0 °F 29.9 in SSE 10 mph 10 mph 53% 0.000 in 0.00 W/m2
18:49 67.0 °F 50.0 °F 29.9 in SE 10 mph 11 mph 54% 0.000 in 0.00 W/m2
18:54 67.0 °F 50.0 °F 29.9 in SE 8 mph 9 mph 55% 0.000 in 0.00 W/m2
18:59 66.0 °F 50.0 °F 29.9 in SE 9 mph 9 mph 55% 0.000 in 0.00 W/m2
19:04 66.0 °F 50.0 °F 29.9 in SE 8 mph 10 mph 56% 0.000 in 0.00 W/m2
19:09 66.0 °F 50.0 °F 29.9 in SE 7 mph 8 mph 57% 0.000 in 0.00 W/m2
19:14 66.0 °F 51.0 °F 29.9 in SSE 16 mph 16 mph 60% 0.000 in 0.00 W/m2
19:19 65.0 °F 52.0 °F 29.9 in SSE 14 mph 16 mph 62% 0.000 in 0.00 W/m2
19:24 65.0 °F 52.0 °F 29.9 in SSE 13 mph 16 mph 64% 0.000 in 0.00 W/m2
19:29 65.0 °F 52.0 °F 29.9 in SSE 13 mph 16 mph 65% 0.000 in 0.00 W/m2
19:34 64.0 °F 52.0 °F 29.9 in SE 15 mph 15 mph 66% 0.000 in 0.00 W/m2
19:39 64.0 °F 52.0 °F 30.0 in SE 13 mph 13 mph 67% 0.000 in 0.00 W/m2
19:44 63.0 °F 52.0 °F 30.0 in SE 10 mph 14 mph 67% 0.000 in 0.00 W/m2
19:49 63.0 °F 52.0 °F 30.0 in SE 10 mph 11 mph 67% 0.000 in 0.00 W/m2
19:54 62.0 °F 52.0 °F 30.0 in SSE 10 mph 11 mph 68% 0.000 in 0.00 W/m2
19:59 62.0 °F 52.0 °F 30.0 in SSE 12 mph 12 mph 68% 0.000 in 0.00 W/m2
20:04 62.0 °F 51.0 °F 30.0 in SSE 15 mph 16 mph 68% 0.000 in 0.00 W/m2
20:09 62.0 °F 51.0 °F 30.0 in SSE 13 mph 16 mph 68% 0.000 in 0.00 W/m2
20:14 61.0 °F 51.0 °F 30.0 in SSE 10 mph 13 mph 68% 0.000 in 0.00 W/m2
20:19 61.0 °F 51.0 °F 30.0 in SSE 8 mph 10 mph 68% 0.000 in 0.00 W/m2
20:24 61.0 °F 50.0 °F 30.0 in SSE 8 mph 9 mph 68% 0.000 in 0.00 W/m2
20:29 61.0 °F 50.0 °F 30.0 in SSE 7 mph 8 mph 67% 0.000 in 0.00 W/m2
20:34 60.0 °F 50.0 °F 30.0 in SSE 6 mph 7 mph 67% 0.000 in 0.00 W/m2
20:39 60.0 °F 50.0 °F 30.0 in South 6 mph 7 mph 67% 0.000 in 0.00 W/m2
20:44 60.0 °F 49.0 °F 30.0 in SSE 5 mph 6 mph 67% 0.000 in 0.00 W/m2
20:49 60.0 °F 49.0 °F 30.0 in SSE 5 mph 5 mph 67% 0.000 in 0.00 W/m2
20:54 60.0 °F 49.0 °F 30.0 in SSE 4 mph 5 mph 67% 0.000 in 0.00 W/m2
20:59 60.0 °F 49.0 °F 30.0 in SSE 3 mph 4 mph 67% 0.000 in 0.00 W/m2
21:04 60.0 °F 49.0 °F 30.0 in SSE 3 mph 3 mph 67% 0.000 in 0.00 W/m2
21:09 60.0 °F 49.0 °F 30.0 in SSE 1 mph 3 mph 68% 0.000 in 0.00 W/m2
21:14 59.0 °F 49.0 °F 30.0 in SSE 3 mph 3 mph 68% 0.000 in 0.00 W/m2
21:19 59.0 °F 49.0 °F 30.0 in SSE 1 mph 1 mph 68% 0.000 in 0.00 W/m2
21:24 59.0 °F 49.0 °F 30.0 in SSE 1 mph 1 mph 68% 0.000 in 0.00 W/m2
21:29 59.0 °F 49.0 °F 30.0 in SSE 1 mph 1 mph 68% 0.000 in 0.00 W/m2
21:34 59.0 °F 48.0 °F 30.0 in SSE 1 mph 3 mph 68% 0.000 in 0.00 W/m2
21:39 59.0 °F 48.0 °F 30.0 in SSE 3 mph 3 mph 68% 0.000 in 0.00 W/m2
21:44 59.0 °F 48.0 °F 30.0 in SSE 3 mph 4 mph 68% 0.000 in 0.00 W/m2
21:49 59.0 °F 48.0 °F 30.0 in SSE 2 mph 3 mph 68% 0.000 in 0.00 W/m2
21:54 59.0 °F 48.0 °F 30.0 in SSE 3 mph 3 mph 68% 0.000 in 0.00 W/m2
21:59 59.0 °F 48.0 °F 30.0 in SE 2 mph 3 mph 67% 0.000 in 0.00 W/m2
22:04 59.0 °F 48.0 °F 30.0 in ESE 4 mph 4 mph 67% 0.000 in 0.00 W/m2
22:09 59.0 °F 48.0 °F 30.0 in ESE 3 mph 3 mph 66% 0.000 in 0.00 W/m2
22:14 59.0 °F 47.0 °F 30.0 in ESE 3 mph 3 mph 65% 0.000 in 0.00 W/m2
22:19 59.0 °F 47.0 °F 30.0 in ESE 6 mph 6 mph 64% 0.000 in 0.00 W/m2
22:24 59.0 °F 47.0 °F 30.0 in East 6 mph 6 mph 64% 0.000 in 0.00 W/m2
22:29 59.0 °F 47.0 °F 30.0 in SE 4 mph 6 mph 64% 0.000 in 0.00 W/m2
22:34 59.0 °F 47.0 °F 30.0 in SE 3 mph 4 mph 64% 0.000 in 0.00 W/m2
22:39 59.0 °F 47.0 °F 30.0 in ESE 2 mph 3 mph 64% 0.000 in 0.00 W/m2
22:44 59.0 °F 47.0 °F 30.0 in ESE 1 mph 2 mph 64% 0.000 in 0.00 W/m2
22:49 59.0 °F 47.0 °F 30.0 in ESE 3 mph 3 mph 64% 0.000 in 0.00 W/m2
22:54 59.0 °F 47.0 °F 30.0 in SE 3 mph 3 mph 64% 0.000 in 0.00 W/m2
22:59 59.0 °F 47.0 °F 30.0 in SE 3 mph 3 mph 64% 0.000 in 0.00 W/m2
23:04 59.0 °F 47.0 °F 30.0 in SE 3 mph 3 mph 64% 0.000 in 0.00 W/m2
23:09 59.0 °F 47.0 °F 30.0 in SE 2 mph 3 mph 64% 0.000 in 0.00 W/m2
23:14 59.0 °F 47.0 °F 30.0 in SE 1 mph 1 mph 64% 0.000 in 0.00 W/m2
23:19 59.0 °F 47.0 °F 30.0 in SE 1 mph 1 mph 64% 0.000 in 0.00 W/m2
23:24 59.0 °F 47.0 °F 30.0 in SE 1 mph 1 mph 64% 0.000 in 0.00 W/m2
23:29 59.0 °F 47.0 °F 30.0 in SE 2 mph 2 mph 64% 0.000 in 0.00 W/m2
23:34 59.0 °F 48.0 °F 30.0 in SE 3 mph 3 mph 65% 0.000 in 0.00 W/m2
23:39 59.0 °F 48.0 °F 30.0 in ESE 2 mph 3 mph 65% 0.000 in 0.00 W/m2
23:44 59.0 °F 48.0 °F 30.0 in East 1 mph 2 mph 65% 0.000 in 0.00 W/m2
23:49 59.0 °F 48.0 °F 30.0 in East 3 mph 3 mph 66% 0.000 in 0.00 W/m2
23:54 59.0 °F 48.0 °F 30.0 in East 2 mph 2 mph 66% 0.000 in 0.00 W/m2
23:59 59.0 °F 48.0 °F 30.0 in East 3 mph 3 mph 66% 0.000 in 0.00 W/m2
Villages of Bridgestone, Spring, TX USA
Compliments of Weather Underground - 4 mb